createdAt,value
2022-12-26T00:00:24.490Z,10.66
2022-12-26T00:01:24.399Z,10.64
2022-12-26T00:02:24.448Z,10.66
2022-12-26T00:03:24.534Z,10.67
2022-12-26T00:04:52.207Z,10.66
2022-12-26T00:05:25.356Z,10.66
2022-12-26T00:06:24.502Z,10.64
2022-12-26T00:07:24.313Z,10.66
2022-12-26T00:08:24.542Z,10.66
2022-12-26T00:09:24.322Z,10.64
2022-12-26T00:10:24.301Z,10.64
2022-12-26T00:11:24.286Z,10.63
2022-12-26T00:12:24.307Z,10.63
2022-12-26T00:13:38.570Z,10.61
2022-12-26T00:14:25.253Z,10.63
2022-12-26T00:15:24.236Z,10.61
2022-12-26T00:16:24.365Z,10.61
2022-12-26T00:17:24.232Z,10.61
2022-12-26T00:18:24.219Z,10.63
2022-12-26T00:19:24.178Z,10.63
2022-12-26T00:20:24.204Z,10.64
2022-12-26T00:21:24.160Z,10.63
2022-12-26T00:22:24.172Z,10.61
2022-12-26T00:23:24.144Z,10.61
2022-12-26T00:24:24.277Z,10.61
2022-12-26T00:25:24.136Z,10.61
2022-12-26T00:26:24.886Z,10.63
2022-12-26T00:27:24.476Z,10.66
2022-12-26T00:28:24.113Z,10.66
2022-12-26T00:29:24.060Z,10.67
2022-12-26T00:30:24.171Z,10.68
2022-12-26T00:31:24.091Z,10.68
2022-12-26T00:32:24.052Z,10.70
2022-12-26T00:33:24.013Z,10.71
2022-12-26T00:34:24.048Z,10.73
2022-12-26T00:35:23.982Z,10.74
2022-12-26T00:36:24.105Z,10.74
2022-12-26T00:37:23.981Z,10.74
2022-12-26T00:38:24.004Z,10.74
2022-12-26T00:39:23.982Z,10.76
2022-12-26T00:40:24.072Z,10.74
2022-12-26T00:41:23.946Z,10.76
2022-12-26T00:42:23.941Z,10.78
2022-12-26T00:43:23.904Z,10.78
2022-12-26T00:44:23.928Z,10.76
2022-12-26T00:45:23.906Z,10.76
2022-12-26T00:46:23.942Z,10.76
2022-12-26T00:47:23.961Z,10.76
2022-12-26T00:48:23.874Z,10.78
2022-12-26T00:49:23.881Z,10.78
2022-12-26T00:50:24.084Z,10.79
2022-12-26T00:51:23.828Z,10.76
2022-12-26T00:52:24.125Z,10.78
2022-12-26T00:53:23.791Z,10.79
2022-12-26T00:54:23.797Z,10.79
2022-12-26T00:55:24.249Z,10.79
2022-12-26T00:56:23.809Z,10.79
2022-12-26T00:57:23.753Z,10.81
2022-12-26T00:58:23.751Z,10.81
2022-12-26T00:59:23.726Z,10.81
2022-12-26T01:00:23.742Z,10.82
2022-12-26T01:01:23.898Z,10.82
2022-12-26T01:02:23.831Z,10.79
2022-12-26T01:03:23.712Z,10.79
2022-12-26T01:04:23.680Z,10.81
2022-12-26T01:05:23.665Z,10.81
2022-12-26T01:06:23.706Z,10.81
2022-12-26T01:07:23.799Z,10.82
2022-12-26T01:08:24.968Z,10.82
2022-12-26T01:09:23.613Z,10.82
2022-12-26T01:10:23.629Z,10.82
2022-12-26T01:11:23.583Z,10.82
2022-12-26T01:12:23.603Z,10.82
2022-12-26T01:13:23.568Z,10.82
2022-12-26T01:14:23.561Z,10.82
2022-12-26T01:15:23.547Z,10.84
2022-12-26T01:16:23.631Z,10.84
2022-12-26T01:17:23.513Z,10.84
2022-12-26T01:18:23.533Z,10.81
2022-12-26T01:19:23.498Z,10.79
2022-12-26T01:20:23.501Z,10.78
2022-12-26T01:21:23.471Z,10.78
2022-12-26T01:22:23.523Z,10.76
2022-12-26T01:23:23.450Z,10.76
2022-12-26T01:24:23.456Z,10.73
2022-12-26T01:25:23.423Z,10.73
2022-12-26T01:26:23.445Z,10.73
2022-12-26T01:27:23.403Z,10.71
2022-12-26T01:28:23.431Z,10.73
2022-12-26T01:29:23.381Z,10.73
2022-12-26T01:30:23.404Z,10.74
2022-12-26T01:31:23.381Z,10.74
2022-12-26T01:32:23.372Z,10.74
2022-12-26T01:33:23.361Z,10.74
2022-12-26T01:34:23.356Z,10.73
2022-12-26T01:35:23.301Z,10.71
2022-12-26T01:36:23.354Z,10.73
2022-12-26T01:37:23.285Z,10.74
2022-12-26T01:38:23.293Z,10.76
2022-12-26T01:39:23.279Z,10.76
2022-12-26T01:40:23.280Z,10.76
2022-12-26T01:41:23.256Z,10.78
2022-12-26T01:42:23.275Z,10.78
2022-12-26T01:43:23.212Z,10.78
2022-12-26T01:44:23.229Z,10.78
2022-12-26T01:45:23.229Z,10.76
2022-12-26T01:46:23.264Z,10.76
2022-12-26T01:47:23.574Z,10.78
2022-12-26T01:48:23.197Z,10.76
2022-12-26T01:49:23.175Z,10.76
2022-12-26T01:50:23.171Z,10.76
2022-12-26T01:51:23.135Z,10.78
2022-12-26T01:52:23.132Z,10.78
2022-12-26T01:53:23.119Z,10.78
2022-12-26T01:54:39.855Z,10.76
2022-12-26T01:55:24.132Z,10.78
2022-12-26T01:56:23.099Z,10.78
2022-12-26T01:57:23.158Z,10.79
2022-12-26T01:58:23.070Z,10.81
2022-12-26T01:59:23.023Z,10.81
2022-12-26T02:00:23.051Z,10.79
2022-12-26T02:01:23.162Z,10.81
2022-12-26T02:02:23.125Z,10.79
2022-12-26T02:03:23.023Z,10.78
2022-12-26T02:04:22.992Z,10.78
2022-12-26T02:05:22.968Z,10.78
2022-12-26T02:06:22.980Z,10.74
2022-12-26T02:07:22.955Z,10.74
2022-12-26T02:08:22.961Z,10.76
2022-12-26T02:09:23.160Z,10.79
2022-12-26T02:10:22.947Z,10.81
2022-12-26T02:11:22.908Z,10.82
2022-12-26T02:12:36.139Z,10.82
2022-12-26T02:13:23.880Z,10.82
2022-12-26T02:14:22.887Z,10.85
2022-12-26T02:15:22.852Z,10.86
2022-12-26T02:16:22.918Z,10.86
2022-12-26T02:17:22.831Z,10.86
2022-12-26T02:18:22.840Z,10.88
2022-12-26T02:19:22.799Z,10.86
2022-12-26T02:20:22.840Z,10.85
2022-12-26T02:21:22.782Z,10.85
2022-12-26T02:22:22.779Z,10.85
2022-12-26T02:23:22.757Z,10.85
2022-12-26T02:24:22.791Z,10.84
2022-12-26T02:25:22.720Z,10.82
2022-12-26T02:26:22.738Z,10.84
2022-12-26T02:27:22.713Z,10.81
2022-12-26T02:28:23.052Z,10.81
2022-12-26T02:29:23.146Z,10.79
2022-12-26T02:30:22.721Z,10.78
2022-12-26T02:31:22.683Z,10.78
2022-12-26T02:32:22.690Z,10.76
2022-12-26T02:33:22.630Z,10.76
2022-12-26T02:34:22.655Z,10.76
2022-12-26T02:35:22.822Z,10.74
2022-12-26T02:36:22.639Z,10.74
2022-12-26T02:37:22.595Z,10.73
2022-12-26T02:38:22.581Z,10.71
2022-12-26T02:39:44.443Z,10.70
2022-12-26T02:40:23.569Z,10.70
2022-12-26T02:41:22.568Z,10.70
2022-12-26T02:42:22.546Z,10.70
2022-12-26T02:43:22.551Z,10.70
2022-12-26T02:44:22.515Z,10.70
2022-12-26T02:45:22.537Z,10.68
2022-12-26T02:46:22.539Z,10.68
2022-12-26T02:47:22.504Z,10.68
2022-12-26T02:48:22.460Z,10.68
2022-12-26T02:49:23.189Z,10.68
2022-12-26T02:50:22.466Z,10.70
2022-12-26T02:51:22.468Z,10.71
2022-12-26T02:52:22.429Z,10.73
2022-12-26T02:53:22.453Z,10.71
2022-12-26T02:54:22.401Z,10.70
2022-12-26T02:55:22.399Z,10.71
2022-12-26T02:56:22.389Z,10.68
2022-12-26T02:57:22.400Z,10.67
2022-12-26T02:58:22.362Z,10.66
2022-12-26T02:59:53.913Z,10.61
2022-12-26T03:00:23.346Z,10.59
2022-12-26T03:01:22.493Z,10.56
2022-12-26T03:02:22.625Z,10.55
2022-12-26T03:03:22.418Z,10.52
2022-12-26T03:04:22.279Z,10.48
2022-12-26T03:05:22.288Z,10.47
2022-12-26T03:06:22.257Z,10.44
2022-12-26T03:07:22.319Z,10.42
2022-12-26T03:08:22.244Z,10.41
2022-12-26T03:09:22.320Z,10.36
2022-12-26T03:10:22.251Z,10.36
2022-12-26T03:11:22.253Z,10.34
2022-12-26T03:12:22.198Z,10.33
2022-12-26T03:13:22.224Z,10.32
2022-12-26T03:14:22.177Z,10.30
2022-12-26T03:15:22.194Z,10.29
2022-12-26T03:16:22.195Z,10.29
2022-12-26T03:17:22.162Z,10.27
2022-12-26T03:18:58.483Z,10.26
2022-12-26T03:19:23.157Z,10.26
2022-12-26T03:20:22.108Z,10.22
2022-12-26T03:21:22.118Z,10.22
2022-12-26T03:22:22.091Z,10.23
2022-12-26T03:23:22.093Z,10.20
2022-12-26T03:24:22.071Z,10.18
2022-12-26T03:25:22.083Z,10.18
2022-12-26T03:26:22.063Z,10.17
2022-12-26T03:27:22.072Z,10.14
2022-12-26T03:28:22.119Z,10.14
2022-12-26T03:29:22.032Z,10.12
2022-12-26T03:30:22.245Z,10.12
2022-12-26T03:31:22.082Z,10.11
2022-12-26T03:32:21.971Z,10.11
2022-12-26T03:33:21.993Z,10.09
2022-12-26T03:34:21.949Z,10.09
2022-12-26T03:35:21.961Z,10.08
2022-12-26T03:36:21.930Z,10.08
2022-12-26T03:37:21.943Z,10.08
2022-12-26T03:38:21.888Z,10.08
2022-12-26T03:39:21.901Z,10.07
2022-12-26T03:40:21.889Z,10.08
2022-12-26T03:41:21.878Z,10.07
2022-12-26T03:42:21.840Z,10.07
2022-12-26T03:43:21.889Z,10.05
2022-12-26T03:44:21.862Z,10.05
2022-12-26T03:45:21.830Z,10.04
2022-12-26T03:46:21.848Z,10.04
2022-12-26T03:47:21.808Z,10.02
2022-12-26T03:48:21.826Z,10.02
2022-12-26T03:49:21.793Z,10.01
2022-12-26T03:50:22.076Z,10.01
2022-12-26T03:51:22.200Z,10.02
2022-12-26T03:52:21.718Z,9.99
2022-12-26T03:53:21.742Z,9.99
2022-12-26T03:54:21.708Z,9.97
2022-12-26T03:55:21.723Z,9.96
2022-12-26T03:56:21.705Z,9.96
2022-12-26T03:57:21.689Z,9.96
2022-12-26T03:58:21.692Z,9.97
2022-12-26T03:59:21.719Z,9.97
2022-12-26T04:00:22.411Z,9.97
2022-12-26T04:01:21.762Z,9.97
2022-12-26T04:02:21.768Z,9.97
2022-12-26T04:03:21.670Z,9.96
2022-12-26T04:04:21.754Z,9.97
2022-12-26T04:05:21.609Z,9.97
2022-12-26T04:06:21.587Z,9.97
2022-12-26T04:07:21.588Z,9.97
2022-12-26T04:08:21.561Z,9.97
2022-12-26T04:09:21.574Z,9.97
2022-12-26T04:10:21.539Z,9.99
2022-12-26T04:11:21.569Z,9.97
2022-12-26T04:12:21.516Z,9.97
2022-12-26T04:13:21.803Z,9.97
2022-12-26T04:14:21.470Z,9.96
2022-12-26T04:15:21.494Z,9.96
2022-12-26T04:16:21.487Z,9.94
2022-12-26T04:17:21.484Z,9.93
2022-12-26T04:18:21.446Z,9.94
2022-12-26T04:19:21.440Z,9.94
2022-12-26T04:20:21.439Z,9.94
2022-12-26T04:21:21.457Z,9.94
2022-12-26T04:22:21.598Z,9.93
2022-12-26T04:23:21.397Z,9.93
2022-12-26T04:24:21.357Z,9.91
2022-12-26T04:25:21.410Z,9.93
2022-12-26T04:26:22.353Z,9.91
2022-12-26T04:27:21.359Z,9.93
2022-12-26T04:28:21.344Z,9.94
2022-12-26T04:29:21.337Z,9.93
2022-12-26T04:30:21.326Z,9.93
2022-12-26T04:31:22.069Z,9.94
2022-12-26T04:32:21.971Z,9.93
2022-12-26T04:33:21.289Z,9.93
2022-12-26T04:34:22.102Z,9.91
2022-12-26T04:35:21.270Z,9.91
2022-12-26T04:36:21.251Z,9.91
2022-12-26T04:37:21.229Z,9.91
2022-12-26T04:38:21.219Z,9.91
2022-12-26T04:39:21.248Z,9.91
2022-12-26T04:40:21.188Z,9.91
2022-12-26T04:41:21.178Z,9.91
2022-12-26T04:42:21.165Z,9.91
2022-12-26T04:43:49.388Z,9.93
2022-12-26T04:44:22.117Z,9.94
2022-12-26T04:45:21.167Z,9.97
2022-12-26T04:46:21.197Z,9.97
2022-12-26T04:47:21.124Z,9.99
2022-12-26T04:48:21.097Z,9.97
2022-12-26T04:49:21.095Z,9.99
2022-12-26T04:50:21.065Z,9.96
2022-12-26T04:51:21.155Z,9.96
2022-12-26T04:52:21.155Z,9.94
2022-12-26T04:53:21.049Z,9.96
2022-12-26T04:54:21.034Z,9.96
2022-12-26T04:55:21.033Z,9.96
2022-12-26T04:56:20.990Z,9.96
2022-12-26T04:57:20.997Z,9.94
2022-12-26T04:58:21.005Z,9.94
2022-12-26T04:59:20.974Z,9.94
2022-12-26T05:00:20.978Z,9.93
2022-12-26T05:01:21.044Z,9.94
2022-12-26T05:02:21.027Z,9.93
2022-12-26T05:03:20.976Z,9.93
2022-12-26T05:04:20.894Z,9.91
2022-12-26T05:05:20.917Z,9.91
2022-12-26T05:06:20.888Z,9.90
2022-12-26T05:07:20.893Z,9.89
2022-12-26T05:08:20.847Z,9.87
2022-12-26T05:09:20.857Z,9.86
2022-12-26T05:10:20.863Z,9.86
2022-12-26T05:11:21.212Z,9.84
2022-12-26T05:12:20.834Z,9.84
2022-12-26T05:13:20.838Z,9.86
2022-12-26T05:14:20.797Z,9.83
2022-12-26T05:15:20.798Z,9.83
2022-12-26T05:16:20.811Z,9.83
2022-12-26T05:17:20.775Z,9.83
2022-12-26T05:18:20.765Z,9.79
2022-12-26T05:19:20.741Z,9.81
2022-12-26T05:20:20.716Z,9.78
2022-12-26T05:21:20.734Z,9.81
2022-12-26T05:22:20.702Z,9.79
2022-12-26T05:23:20.710Z,9.78
2022-12-26T05:24:20.671Z,9.76
2022-12-26T05:25:20.673Z,9.75
2022-12-26T05:26:20.644Z,9.76
2022-12-26T05:27:20.646Z,9.74
2022-12-26T05:28:20.617Z,9.74
2022-12-26T05:29:20.623Z,9.74
2022-12-26T05:30:20.595Z,9.74
2022-12-26T05:31:20.639Z,9.74
2022-12-26T05:32:20.583Z,9.71
2022-12-26T05:33:20.691Z,9.72
2022-12-26T05:34:20.553Z,9.72
2022-12-26T05:35:20.557Z,9.72
2022-12-26T05:36:20.541Z,9.71
2022-12-26T05:37:20.554Z,9.71
2022-12-26T05:38:20.534Z,9.71
2022-12-26T05:39:20.524Z,9.69
2022-12-26T05:40:20.466Z,9.68
2022-12-26T05:41:20.513Z,9.69
2022-12-26T05:42:20.490Z,9.68
2022-12-26T05:43:20.469Z,9.68
2022-12-26T05:44:20.422Z,9.69
2022-12-26T05:45:20.443Z,9.66
2022-12-26T05:46:20.472Z,9.68
2022-12-26T05:47:20.415Z,9.66
2022-12-26T05:48:20.385Z,9.66
2022-12-26T05:49:20.411Z,9.66
2022-12-26T05:50:20.399Z,9.66
2022-12-26T05:51:20.398Z,9.66
2022-12-26T05:52:20.337Z,9.66
2022-12-26T05:53:20.619Z,9.65
2022-12-26T05:54:20.358Z,9.65
2022-12-26T05:55:20.342Z,9.64
2022-12-26T05:56:20.304Z,9.64
2022-12-26T05:57:20.303Z,9.65
2022-12-26T05:58:20.273Z,9.64
2022-12-26T05:59:20.302Z,9.64
2022-12-26T06:00:20.314Z,9.64
2022-12-26T06:01:20.345Z,9.65
2022-12-26T06:02:20.397Z,9.64
2022-12-26T06:03:20.333Z,9.64
2022-12-26T06:04:20.334Z,9.61
2022-12-26T06:05:20.219Z,9.64
2022-12-26T06:06:20.204Z,9.61
2022-12-26T06:07:20.214Z,9.64
2022-12-26T06:08:20.153Z,9.61
2022-12-26T06:09:20.163Z,9.61
2022-12-26T06:10:20.169Z,9.61
2022-12-26T06:11:20.163Z,9.58
2022-12-26T06:12:20.117Z,9.60
2022-12-26T06:13:20.154Z,9.58
2022-12-26T06:14:20.194Z,9.60
2022-12-26T06:15:20.226Z,9.61
2022-12-26T06:16:20.216Z,9.60
2022-12-26T06:17:20.072Z,9.60
2022-12-26T06:18:20.062Z,9.61
2022-12-26T06:19:20.112Z,9.64
2022-12-26T06:20:20.032Z,9.64
2022-12-26T06:21:20.045Z,9.64
2022-12-26T06:22:19.996Z,9.64
2022-12-26T06:23:20.001Z,9.64
2022-12-26T06:24:20.007Z,9.61
2022-12-26T06:25:20.013Z,9.60
2022-12-26T06:26:19.968Z,9.58
2022-12-26T06:27:19.966Z,9.60
2022-12-26T06:28:19.943Z,9.58
2022-12-26T06:29:19.932Z,9.58
2022-12-26T06:30:19.921Z,9.57
2022-12-26T06:31:20.031Z,9.57
2022-12-26T06:32:19.912Z,9.57
2022-12-26T06:33:19.912Z,9.58
2022-12-26T06:34:20.237Z,9.57
2022-12-26T06:35:20.247Z,9.57
2022-12-26T06:36:19.848Z,9.57
2022-12-26T06:37:19.882Z,9.57
2022-12-26T06:38:19.839Z,9.56
2022-12-26T06:39:19.837Z,9.54
2022-12-26T06:40:19.819Z,9.54
2022-12-26T06:41:19.807Z,9.51
2022-12-26T06:42:19.783Z,9.51
2022-12-26T06:43:19.798Z,9.51
2022-12-26T06:44:19.770Z,9.51
2022-12-26T06:45:19.743Z,9.51
2022-12-26T06:46:19.779Z,9.50
2022-12-26T06:47:19.733Z,9.51
2022-12-26T06:48:19.712Z,9.51
2022-12-26T06:49:19.727Z,9.51
2022-12-26T06:50:19.704Z,9.51
2022-12-26T06:51:19.700Z,9.50
2022-12-26T06:52:19.649Z,9.50
2022-12-26T06:53:19.663Z,9.50
2022-12-26T06:54:19.662Z,9.50
2022-12-26T06:55:19.623Z,9.48
2022-12-26T06:56:19.671Z,9.48
2022-12-26T06:57:19.591Z,9.46
2022-12-26T06:58:19.620Z,9.46
2022-12-26T06:59:19.872Z,9.43
2022-12-26T07:00:19.591Z,9.40
2022-12-26T07:01:19.681Z,9.39
2022-12-26T07:02:19.645Z,9.38
2022-12-26T07:03:19.542Z,9.35
2022-12-26T07:04:19.576Z,9.32
2022-12-26T07:05:19.495Z,9.28
2022-12-26T07:06:19.525Z,9.24
2022-12-26T07:07:19.532Z,9.21
2022-12-26T07:08:19.510Z,9.21
2022-12-26T07:09:19.489Z,9.18
2022-12-26T07:10:19.462Z,9.14
2022-12-26T07:11:19.433Z,9.11
2022-12-26T07:12:19.445Z,9.10
2022-12-26T07:13:19.413Z,9.05
2022-12-26T07:14:19.457Z,9.02
2022-12-26T07:15:20.012Z,9.01
2022-12-26T07:16:19.428Z,8.98
2022-12-26T07:17:19.399Z,8.95
2022-12-26T07:18:19.395Z,8.92
2022-12-26T07:19:19.335Z,8.92
2022-12-26T07:20:19.361Z,8.91
2022-12-26T07:21:19.320Z,8.91
2022-12-26T07:22:19.340Z,8.87
2022-12-26T07:23:19.334Z,8.86
2022-12-26T07:24:19.327Z,8.84
2022-12-26T07:25:19.302Z,8.86
2022-12-26T07:26:19.290Z,8.84
2022-12-26T07:27:19.254Z,8.84
2022-12-26T07:28:19.281Z,8.86
2022-12-26T07:29:19.233Z,8.84
2022-12-26T07:30:19.287Z,8.84
2022-12-26T07:31:19.229Z,8.84
2022-12-26T07:32:19.224Z,8.83
2022-12-26T07:33:19.202Z,8.80
2022-12-26T07:34:19.187Z,8.79
2022-12-26T07:35:19.161Z,8.76
2022-12-26T07:36:19.183Z,8.77
2022-12-26T07:37:19.155Z,8.76
2022-12-26T07:38:19.175Z,8.76
2022-12-26T07:39:19.124Z,8.74
2022-12-26T07:40:19.191Z,8.71
2022-12-26T07:41:19.090Z,8.71
2022-12-26T07:42:19.114Z,8.68
2022-12-26T07:43:19.078Z,8.70
2022-12-26T07:44:19.085Z,8.66
2022-12-26T07:45:19.038Z,8.68
2022-12-26T07:46:19.103Z,8.66
2022-12-26T07:47:19.024Z,8.68
2022-12-26T07:48:19.039Z,8.66
2022-12-26T07:49:19.008Z,8.66
2022-12-26T07:50:19.026Z,8.68
2022-12-26T07:51:18.994Z,8.70
2022-12-26T07:52:19.003Z,8.68
2022-12-26T07:53:18.975Z,8.70
2022-12-26T07:54:18.987Z,8.70
2022-12-26T07:55:18.933Z,8.70
2022-12-26T07:56:18.965Z,8.71
2022-12-26T07:58:19.960Z,8.71
2022-12-26T07:59:18.921Z,8.71
2022-12-26T08:00:18.936Z,8.71
2022-12-26T08:01:19.087Z,8.71
2022-12-26T08:02:18.991Z,8.70
2022-12-26T08:03:19.063Z,8.71
2022-12-26T08:04:18.851Z,8.71
2022-12-26T08:05:18.844Z,8.71
2022-12-26T08:06:18.888Z,8.73
2022-12-26T08:07:18.812Z,8.74
2022-12-26T08:08:18.800Z,8.74
2022-12-26T08:09:18.817Z,8.74
2022-12-26T08:10:18.794Z,8.73
2022-12-26T08:11:18.738Z,8.76
2022-12-26T08:12:18.769Z,8.74
2022-12-26T08:13:18.797Z,8.76
2022-12-26T08:14:18.756Z,8.77
2022-12-26T08:15:18.720Z,8.79
2022-12-26T08:16:18.946Z,8.77
2022-12-26T08:17:18.734Z,8.79
2022-12-26T08:18:18.694Z,8.79
2022-12-26T08:19:18.662Z,8.80
2022-12-26T08:20:18.679Z,8.80
2022-12-26T08:21:18.639Z,8.80
2022-12-26T08:22:18.653Z,8.81
2022-12-26T08:23:18.668Z,8.83
2022-12-26T08:24:18.647Z,8.83
2022-12-26T08:25:21.822Z,8.84
2022-12-26T08:26:18.611Z,8.84
2022-12-26T08:27:18.561Z,8.86
2022-12-26T08:28:18.604Z,8.87
2022-12-26T08:29:18.549Z,8.87
2022-12-26T08:30:18.609Z,8.89
2022-12-26T08:31:18.581Z,8.89
2022-12-26T08:32:18.539Z,8.89
2022-12-26T08:33:18.522Z,8.91
2022-12-26T08:34:18.542Z,8.89
2022-12-26T08:35:18.502Z,8.89
2022-12-26T08:36:18.497Z,8.91
2022-12-26T08:37:18.523Z,8.91
2022-12-26T08:38:18.492Z,8.89
2022-12-26T08:39:18.437Z,8.91
2022-12-26T08:40:26.803Z,8.92
2022-12-26T08:41:19.406Z,8.92
2022-12-26T08:42:18.427Z,8.94
2022-12-26T08:43:34.765Z,8.94
2022-12-26T08:44:28.026Z,8.94
2022-12-26T08:45:19.348Z,8.94
2022-12-26T08:46:18.440Z,8.94
2022-12-26T08:47:18.335Z,8.95
2022-12-26T08:48:18.341Z,8.95
2022-12-26T08:49:18.319Z,8.96
2022-12-26T08:50:18.343Z,8.96
2022-12-26T08:51:18.301Z,8.99
2022-12-26T08:52:18.301Z,8.98
2022-12-26T08:53:18.280Z,8.99
2022-12-26T08:54:18.312Z,8.99
2022-12-26T08:55:18.253Z,8.98
2022-12-26T08:56:18.272Z,8.98
2022-12-26T08:57:18.250Z,8.98
2022-12-26T08:58:18.270Z,8.98
2022-12-26T08:59:18.199Z,8.98
2022-12-26T09:00:18.209Z,8.98
2022-12-26T09:01:18.263Z,8.99
2022-12-26T09:02:18.397Z,9.01
2022-12-26T09:03:18.307Z,9.04
2022-12-26T09:04:18.158Z,9.05
2022-12-26T09:05:18.128Z,9.05
2022-12-26T09:06:18.160Z,9.10
2022-12-26T09:07:18.112Z,9.13
2022-12-26T09:08:18.118Z,9.13
2022-12-26T09:09:18.082Z,9.11
2022-12-26T09:10:18.110Z,9.13
2022-12-26T09:11:18.062Z,9.11
2022-12-26T09:12:18.078Z,9.14
2022-12-26T09:13:18.037Z,9.11
2022-12-26T09:14:18.081Z,9.13
2022-12-26T09:15:18.041Z,9.13
2022-12-26T09:16:18.053Z,9.10
2022-12-26T09:17:18.077Z,9.08
2022-12-26T09:18:18.357Z,9.10
2022-12-26T09:19:18.198Z,9.10
2022-12-26T09:20:17.988Z,9.05
2022-12-26T09:21:17.960Z,9.04
2022-12-26T09:22:18.004Z,9.04
2022-12-26T09:23:17.917Z,9.04
2022-12-26T09:24:17.939Z,9.04
2022-12-26T09:25:17.903Z,9.04
2022-12-26T09:26:17.923Z,9.05
2022-12-26T09:27:17.889Z,9.05
2022-12-26T09:28:17.886Z,9.08
2022-12-26T09:29:17.875Z,9.08
2022-12-26T09:30:17.915Z,9.11
2022-12-26T09:31:17.941Z,9.13
2022-12-26T09:32:17.856Z,9.13
2022-12-26T09:33:17.807Z,9.14
2022-12-26T09:34:17.839Z,9.13
2022-12-26T09:35:17.793Z,9.14
2022-12-26T09:36:17.823Z,9.17
2022-12-26T09:37:17.775Z,9.17
2022-12-26T09:38:18.241Z,9.18
2022-12-26T09:39:17.747Z,9.21
2022-12-26T09:40:17.777Z,9.23
2022-12-26T09:41:17.717Z,9.26
2022-12-26T09:42:17.768Z,9.32
2022-12-26T09:43:17.696Z,9.36
2022-12-26T09:44:17.707Z,9.42
2022-12-26T09:45:17.659Z,9.47
2022-12-26T09:46:17.701Z,9.53
2022-12-26T09:47:17.676Z,9.56
2022-12-26T09:48:17.726Z,9.60
2022-12-26T09:49:17.618Z,9.65
2022-12-26T09:50:17.653Z,9.66
2022-12-26T09:51:17.595Z,9.69
2022-12-26T09:52:17.627Z,9.71
2022-12-26T09:53:17.587Z,9.72
2022-12-26T09:54:17.609Z,9.72
2022-12-26T09:55:17.547Z,9.74
2022-12-26T09:56:53.165Z,9.75
2022-12-26T09:57:18.594Z,9.76
2022-12-26T09:58:17.575Z,9.78
2022-12-26T09:59:17.555Z,9.78
2022-12-26T10:00:17.589Z,9.79
2022-12-26T10:01:17.712Z,9.79
2022-12-26T10:02:17.610Z,9.81
2022-12-26T10:03:17.603Z,9.81
2022-12-26T10:04:17.544Z,9.83
2022-12-26T10:05:17.467Z,9.83
2022-12-26T10:06:17.435Z,9.86
2022-12-26T10:07:17.407Z,9.86
2022-12-26T10:08:17.425Z,9.87
2022-12-26T10:09:17.404Z,9.86
2022-12-26T10:10:17.440Z,9.86
2022-12-26T10:11:17.380Z,9.86
2022-12-26T10:12:17.378Z,9.87
2022-12-26T10:13:17.376Z,9.89
2022-12-26T10:14:21.608Z,9.87
2022-12-26T10:15:17.368Z,9.89
2022-12-26T10:16:17.353Z,9.89
2022-12-26T10:17:17.295Z,9.89
2022-12-26T10:18:17.307Z,9.90
2022-12-26T10:19:17.512Z,9.93
2022-12-26T10:20:17.505Z,9.93
2022-12-26T10:21:17.255Z,9.94
2022-12-26T10:22:17.267Z,9.99
2022-12-26T10:23:17.235Z,10.01
2022-12-26T10:24:17.266Z,10.05
2022-12-26T10:25:17.251Z,10.07
2022-12-26T10:26:17.219Z,10.08
2022-12-26T10:27:17.188Z,10.08
2022-12-26T10:28:17.258Z,10.04
2022-12-26T10:29:17.176Z,10.05
2022-12-26T10:30:17.229Z,10.07
2022-12-26T10:31:17.194Z,10.09
2022-12-26T10:32:18.093Z,10.12
2022-12-26T10:33:17.110Z,10.14
2022-12-26T10:34:17.179Z,10.17
2022-12-26T10:35:17.087Z,10.17
2022-12-26T10:36:17.107Z,10.22
2022-12-26T10:37:17.075Z,10.23
2022-12-26T10:38:20.382Z,10.23
2022-12-26T10:39:18.243Z,10.26
2022-12-26T10:40:17.125Z,10.27
2022-12-26T10:41:17.025Z,10.30
2022-12-26T10:42:17.067Z,10.33
2022-12-26T10:43:16.997Z,10.34
2022-12-26T10:44:17.007Z,10.38
2022-12-26T10:45:16.978Z,10.40
2022-12-26T10:46:17.027Z,10.42
2022-12-26T10:47:16.959Z,10.42
2022-12-26T10:48:16.974Z,10.45
2022-12-26T10:49:16.946Z,10.47
2022-12-26T10:50:16.949Z,10.45
2022-12-26T10:51:16.913Z,10.47
2022-12-26T10:52:16.939Z,10.48
2022-12-26T10:53:16.888Z,10.47
2022-12-26T10:54:16.904Z,10.52
2022-12-26T10:55:29.125Z,10.52
2022-12-26T10:56:18.491Z,10.53
2022-12-26T10:57:16.835Z,10.53
2022-12-26T10:58:16.890Z,10.55
2022-12-26T10:59:16.851Z,10.56
2022-12-26T11:00:17.368Z,10.56
2022-12-26T11:01:16.984Z,10.59
2022-12-26T11:02:16.949Z,10.56
2022-12-26T11:03:17.098Z,10.60
2022-12-26T11:04:21.917Z,10.61
2022-12-26T11:06:05.831Z,10.63
2022-12-26T11:06:17.764Z,10.63
2022-12-26T11:07:16.722Z,10.67
2022-12-26T11:08:16.725Z,10.73
2022-12-26T11:09:16.705Z,10.73
2022-12-26T11:10:16.710Z,10.73
2022-12-26T11:11:16.694Z,10.73
2022-12-26T11:12:16.665Z,10.74
2022-12-26T11:13:16.687Z,10.81
2022-12-26T11:14:16.645Z,10.86
2022-12-26T11:15:16.664Z,10.89
2022-12-26T11:16:16.755Z,10.92
2022-12-26T11:17:16.634Z,11.02
2022-12-26T11:18:16.605Z,11.06
2022-12-26T11:19:16.617Z,11.09
2022-12-26T11:20:16.870Z,11.11
2022-12-26T11:21:16.805Z,11.15
2022-12-26T11:22:16.553Z,11.17
2022-12-26T11:23:16.581Z,11.17
2022-12-26T11:24:16.574Z,11.19
2022-12-26T11:25:16.598Z,11.22
2022-12-26T11:26:16.504Z,11.21
2022-12-26T11:27:16.523Z,11.19
2022-12-26T11:28:16.476Z,11.21
2022-12-26T11:29:16.516Z,11.19
2022-12-26T11:30:16.546Z,11.14
2022-12-26T11:31:16.523Z,11.15
2022-12-26T11:32:16.455Z,11.10
2022-12-26T11:33:16.455Z,11.10
2022-12-26T11:34:16.424Z,11.07
2022-12-26T11:35:16.426Z,11.06
2022-12-26T11:36:16.398Z,11.04
2022-12-26T11:37:16.423Z,11.00
2022-12-26T11:38:16.364Z,10.96
2022-12-26T11:39:16.405Z,10.92
2022-12-26T11:40:16.358Z,10.91
2022-12-26T11:41:16.368Z,10.92
2022-12-26T11:42:16.326Z,10.92
2022-12-26T11:43:16.360Z,10.91
2022-12-26T11:44:16.305Z,10.91
2022-12-26T11:45:16.314Z,10.86
2022-12-26T11:46:16.348Z,10.86
2022-12-26T11:47:16.291Z,10.88
2022-12-26T11:48:16.254Z,10.85
2022-12-26T11:49:16.286Z,10.86
2022-12-26T11:50:16.225Z,10.85
2022-12-26T11:51:16.242Z,10.85
2022-12-26T11:52:16.227Z,10.84
2022-12-26T11:53:16.219Z,10.86
2022-12-26T11:54:16.195Z,10.88
2022-12-26T11:55:16.290Z,10.91
2022-12-26T11:56:16.181Z,10.91
2022-12-26T11:57:16.196Z,10.92
2022-12-26T11:58:16.171Z,10.94
2022-12-26T11:59:16.150Z,10.94
2022-12-26T12:00:16.247Z,10.89
2022-12-26T12:01:16.450Z,10.88
2022-12-26T12:02:16.277Z,10.84
2022-12-26T12:03:16.151Z,10.81
2022-12-26T12:04:16.113Z,10.81
2022-12-26T12:05:16.117Z,10.81
2022-12-26T12:06:16.091Z,10.78
2022-12-26T12:07:16.089Z,10.74
2022-12-26T12:08:16.070Z,10.76
2022-12-26T12:09:16.044Z,10.73
2022-12-26T12:10:16.026Z,10.71
2022-12-26T12:11:16.064Z,10.70
2022-12-26T12:12:15.984Z,10.67
2022-12-26T12:13:16.024Z,10.66
2022-12-26T12:14:16.031Z,10.64
2022-12-26T12:15:16.017Z,10.64
2022-12-26T12:16:16.026Z,10.63
2022-12-26T12:17:16.008Z,10.66
2022-12-26T12:18:15.923Z,10.67
2022-12-26T12:19:15.953Z,10.66
2022-12-26T12:20:15.942Z,10.63
2022-12-26T12:21:15.984Z,10.59
2022-12-26T12:22:15.886Z,10.52
2022-12-26T12:23:15.929Z,10.48
2022-12-26T12:24:15.842Z,10.45
2022-12-26T12:25:15.852Z,10.40
2022-12-26T12:26:15.849Z,10.36
2022-12-26T12:27:15.859Z,10.34
2022-12-26T12:28:15.849Z,10.29
2022-12-26T12:29:15.815Z,10.26
2022-12-26T12:30:15.796Z,10.25
2022-12-26T12:31:15.867Z,10.22
2022-12-26T12:32:15.781Z,10.20
2022-12-26T12:33:15.805Z,10.17
2022-12-26T12:34:15.763Z,10.15
2022-12-26T12:35:15.803Z,10.17
2022-12-26T12:36:15.712Z,10.18
2022-12-26T12:37:15.716Z,10.20
2022-12-26T12:38:15.692Z,10.23
2022-12-26T12:39:15.715Z,10.23
2022-12-26T12:40:15.667Z,10.23
2022-12-26T12:41:15.679Z,10.23
2022-12-26T12:42:15.924Z,10.23
2022-12-26T12:43:15.658Z,10.23
2022-12-26T12:44:15.629Z,10.25
2022-12-26T12:45:15.623Z,10.25
2022-12-26T12:46:15.660Z,10.25
2022-12-26T12:47:15.605Z,10.27
2022-12-26T12:48:15.575Z,10.26
2022-12-26T12:49:15.587Z,10.25
2022-12-26T12:50:15.553Z,10.26
2022-12-26T12:51:15.574Z,10.26
2022-12-26T12:52:15.542Z,10.25
2022-12-26T12:53:15.519Z,10.23
2022-12-26T12:54:15.504Z,10.23
2022-12-26T12:55:15.518Z,10.22
2022-12-26T12:56:15.472Z,10.22
2022-12-26T12:57:15.494Z,10.18
2022-12-26T12:58:15.447Z,10.20
2022-12-26T12:59:15.463Z,10.18
2022-12-26T13:00:15.437Z,10.17
2022-12-26T13:01:15.608Z,10.14
2022-12-26T13:02:20.293Z,10.12
2022-12-26T13:03:16.450Z,10.11
2022-12-26T13:04:15.415Z,10.09
2022-12-26T13:05:15.395Z,10.08
2022-12-26T13:06:15.363Z,10.07